createdAt,value
2022-10-03T00:02:51.646Z,12.2
2022-10-03T00:07:57.810Z,12.2
2022-10-03T00:13:04.024Z,12.2
2022-10-03T00:18:10.226Z,12.2
2022-10-03T00:23:16.430Z,12.2
2022-10-03T00:28:22.658Z,12.1
2022-10-03T00:33:28.846Z,12.1
2022-10-03T00:38:35.071Z,12.1
2022-10-03T00:43:41.260Z,12.1
2022-10-03T00:48:47.478Z,12.0
2022-10-03T00:53:53.691Z,12.0
2022-10-03T00:58:59.884Z,12.0
2022-10-03T01:04:05.123Z,11.9
2022-10-03T01:09:11.326Z,11.9
2022-10-03T01:14:16.565Z,11.9
2022-10-03T01:19:22.782Z,11.8
2022-10-03T01:24:28.977Z,11.8
2022-10-03T01:29:35.196Z,11.8
2022-10-03T01:34:41.406Z,11.8
2022-10-03T01:39:47.609Z,11.7
2022-10-03T01:44:53.813Z,11.7
2022-10-03T01:50:00.027Z,11.6
2022-10-03T01:55:06.238Z,11.6
2022-10-03T02:00:12.450Z,11.6
2022-10-03T02:05:18.655Z,11.6
2022-10-03T02:10:24.854Z,11.6
2022-10-03T02:15:31.073Z,11.5
2022-10-03T02:20:37.275Z,11.5
2022-10-03T02:25:43.479Z,11.5
2022-10-03T02:30:49.683Z,11.5
2022-10-03T02:35:55.896Z,11.4
2022-10-03T02:41:02.102Z,11.4
2022-10-03T02:46:08.428Z,11.4
2022-10-03T02:51:14.521Z,11.4
2022-10-03T02:56:20.729Z,11.4
2022-10-03T03:01:26.033Z,11.4
2022-10-03T03:06:32.170Z,11.3
2022-10-03T03:11:37.682Z,11.3
2022-10-03T03:16:43.680Z,11.3
2022-10-03T03:21:49.822Z,11.3
2022-10-03T03:26:56.029Z,11.3
2022-10-03T03:32:02.339Z,11.3
2022-10-03T03:37:08.450Z,11.3
2022-10-03T03:42:14.655Z,11.2
2022-10-03T03:47:20.858Z,11.2
2022-10-03T03:52:27.079Z,11.2
2022-10-03T03:57:33.282Z,11.2
2022-10-03T04:02:39.604Z,11.1
2022-10-03T04:07:45.692Z,11.1
2022-10-03T04:12:51.901Z,11.1
2022-10-03T04:17:58.108Z,11.1
2022-10-03T04:23:04.314Z,11.0
2022-10-03T04:28:10.596Z,11.0
2022-10-03T04:33:16.753Z,11.0
2022-10-03T04:38:22.944Z,11.0
2022-10-03T04:43:29.157Z,10.9
2022-10-03T04:48:35.357Z,10.9
2022-10-03T04:53:41.567Z,10.9
2022-10-03T04:58:46.800Z,10.9
2022-10-03T05:03:53.008Z,10.8
2022-10-03T05:08:59.216Z,10.8
2022-10-03T05:14:04.460Z,10.8
2022-10-03T05:19:10.662Z,10.8
2022-10-03T05:24:16.878Z,10.8
2022-10-03T05:29:23.070Z,10.7
2022-10-03T05:34:29.310Z,10.7
2022-10-03T05:39:35.492Z,10.7
2022-10-03T05:44:41.700Z,10.7
2022-10-03T05:49:47.909Z,10.7
2022-10-03T05:54:54.120Z,10.6
2022-10-03T06:00:00.335Z,10.6
2022-10-03T06:05:06.543Z,10.5
2022-10-03T06:10:12.747Z,10.5
2022-10-03T06:15:18.950Z,10.5
2022-10-03T06:20:25.155Z,10.5
2022-10-03T06:25:31.360Z,10.5
2022-10-03T06:30:37.615Z,10.5
2022-10-03T06:35:43.782Z,10.5
2022-10-03T06:40:50.012Z,10.6
2022-10-03T06:45:56.251Z,10.7
2022-10-03T06:51:02.414Z,10.9
2022-10-03T06:56:08.614Z,11.2
2022-10-03T07:01:13.925Z,11.4
2022-10-03T07:06:20.063Z,11.6
2022-10-03T07:11:26.290Z,11.8
2022-10-03T07:16:32.563Z,11.9
2022-10-03T07:21:39.057Z,12.1
2022-10-03T07:26:44.894Z,12.3
2022-10-03T07:31:51.091Z,12.4
2022-10-03T07:36:57.299Z,12.6
2022-10-03T07:47:09.952Z,12.9
2022-10-03T07:52:15.945Z,13.1
2022-10-03T07:57:22.128Z,13.3
2022-10-03T08:02:28.395Z,13.4
2022-10-03T08:12:40.758Z,13.7
2022-10-03T08:17:46.962Z,13.9
2022-10-03T08:22:53.178Z,14.1
2022-10-03T08:27:59.439Z,14.3
2022-10-03T08:33:05.591Z,14.6
2022-10-03T08:38:11.795Z,14.8
2022-10-03T08:43:18.011Z,15.0
2022-10-03T08:48:24.219Z,15.2
2022-10-03T08:53:29.466Z,15.4
2022-10-03T08:58:35.678Z,15.6
2022-10-03T09:03:43.666Z,15.9
2022-10-03T09:08:47.145Z,16.1
2022-10-03T09:13:52.389Z,16.3
2022-10-03T09:18:58.590Z,16.5
2022-10-03T09:24:04.810Z,16.7
2022-10-03T09:29:11.031Z,16.9
2022-10-03T09:34:17.226Z,17.1
2022-10-03T09:39:23.439Z,17.3
2022-10-03T09:44:29.642Z,17.5
2022-10-03T09:49:35.853Z,17.7
2022-10-03T09:54:42.066Z,17.9
2022-10-03T09:59:48.280Z,18.0
2022-10-03T10:04:56.069Z,18.2
2022-10-03T10:10:00.696Z,18.4
2022-10-03T10:15:06.893Z,18.5
2022-10-03T10:20:13.105Z,18.6
2022-10-03T10:25:19.316Z,18.8
2022-10-03T10:30:25.526Z,18.9
2022-10-03T10:35:31.732Z,19.0
2022-10-03T10:40:37.939Z,19.2
2022-10-03T10:45:44.153Z,19.3
2022-10-03T10:50:50.374Z,19.5
2022-10-03T10:55:56.576Z,19.6
2022-10-03T11:01:01.861Z,19.7
2022-10-03T11:06:08.010Z,19.7
2022-10-03T11:11:14.211Z,19.7
2022-10-03T11:16:20.468Z,19.7
2022-10-03T11:21:25.664Z,19.7
2022-10-03T11:26:31.878Z,19.7
2022-10-03T11:31:38.133Z,19.8
2022-10-03T11:36:44.640Z,19.9
2022-10-03T11:41:50.498Z,19.9
2022-10-03T11:46:56.714Z,20.0
2022-10-03T11:52:02.914Z,20.2
2022-10-03T11:57:09.120Z,20.2
2022-10-03T12:02:15.420Z,20.2
2022-10-03T12:07:21.541Z,20.2
2022-10-03T12:12:27.757Z,20.2
2022-10-03T12:17:33.961Z,20.3
2022-10-03T12:22:40.165Z,20.4
2022-10-03T12:27:46.372Z,20.4
2022-10-03T12:32:52.582Z,20.4
2022-10-03T12:37:58.797Z,20.4
2022-10-03T12:43:05.000Z,20.4
2022-10-03T12:48:11.209Z,20.4
2022-10-03T12:53:17.413Z,20.6
2022-10-03T12:58:23.656Z,20.7
2022-10-03T13:03:29.835Z,20.8
2022-10-03T13:08:35.066Z,20.8
2022-10-03T13:13:40.307Z,20.8
2022-10-03T13:18:45.546Z,20.7
2022-10-03T13:23:51.742Z,20.6
2022-10-03T13:28:57.962Z,20.6
2022-10-03T13:34:04.183Z,20.5
2022-10-03T13:39:10.370Z,20.6
2022-10-03T13:44:16.579Z,20.6
2022-10-03T13:49:22.788Z,20.5
2022-10-03T13:54:28.996Z,20.5
2022-10-03T13:59:35.236Z,20.5
2022-10-03T14:04:41.414Z,20.5
2022-10-03T14:09:47.627Z,20.5
2022-10-03T14:14:53.827Z,20.5
2022-10-03T14:20:00.036Z,20.4
2022-10-03T14:25:06.241Z,20.3
2022-10-03T14:30:12.462Z,20.3
2022-10-03T14:35:18.680Z,20.2
2022-10-03T14:40:24.868Z,20.1
2022-10-03T14:45:31.188Z,20.1
2022-10-03T14:50:37.283Z,20.1
2022-10-03T14:55:43.498Z,20.0
2022-10-03T15:00:49.713Z,20.0
2022-10-03T15:05:54.937Z,20.0
2022-10-03T15:11:01.153Z,20.0
2022-10-03T15:16:06.433Z,19.9
2022-10-03T15:21:12.600Z,19.9
2022-10-03T15:26:18.804Z,19.9
2022-10-03T15:31:25.044Z,19.9
2022-10-03T15:36:31.218Z,19.8
2022-10-03T15:41:37.815Z,19.8
2022-10-03T15:46:43.655Z,19.8
2022-10-03T15:51:49.851Z,19.7
2022-10-03T15:56:56.054Z,19.7
2022-10-03T16:02:02.333Z,19.7
2022-10-03T16:07:08.472Z,19.6
2022-10-03T16:12:14.688Z,19.5
2022-10-03T16:17:20.892Z,19.5
2022-10-03T16:22:27.096Z,19.4
2022-10-03T16:27:33.299Z,19.4
2022-10-03T16:32:39.520Z,19.3
2022-10-03T16:37:45.724Z,19.2
2022-10-03T16:42:51.933Z,19.2
2022-10-03T16:47:58.147Z,19.1
2022-10-03T16:53:04.347Z,19.0
2022-10-03T16:58:10.557Z,18.9
2022-10-03T17:03:15.805Z,18.8
2022-10-03T17:08:40.833Z,18.7
2022-10-03T17:13:27.234Z,18.6
2022-10-03T17:18:33.445Z,18.4
2022-10-03T17:23:39.658Z,18.3
2022-10-03T17:28:45.864Z,18.1
2022-10-03T17:33:52.090Z,18.0
2022-10-03T17:38:58.312Z,17.8
2022-10-03T17:44:04.487Z,17.6
2022-10-03T17:49:10.697Z,17.4
2022-10-03T17:54:16.958Z,17.2
2022-10-03T17:59:23.112Z,17.1
2022-10-03T18:04:29.324Z,16.9
2022-10-03T18:09:35.532Z,16.8
2022-10-03T18:14:41.738Z,16.7
2022-10-03T18:19:47.948Z,16.7
2022-10-03T18:24:54.169Z,16.6
2022-10-03T18:30:00.370Z,16.5
2022-10-03T18:35:06.572Z,16.5
2022-10-03T18:40:12.793Z,16.4
2022-10-03T18:45:18.985Z,16.4
2022-10-03T18:50:25.194Z,16.3
2022-10-03T18:55:31.403Z,16.2
2022-10-03T19:00:40.632Z,16.1
2022-10-03T19:05:42.847Z,16.0
2022-10-03T19:10:48.089Z,15.9
2022-10-03T19:15:54.291Z,15.8
2022-10-03T19:21:00.502Z,15.7
2022-10-03T19:26:06.731Z,15.7
2022-10-03T19:31:12.939Z,15.6
2022-10-03T19:36:19.124Z,15.5
2022-10-03T19:41:25.360Z,15.5
2022-10-03T19:46:31.572Z,15.4
2022-10-03T19:51:38.031Z,15.3
2022-10-03T19:56:43.999Z,15.2
2022-10-03T20:01:50.311Z,15.2
2022-10-03T20:06:56.447Z,15.1
2022-10-03T20:12:02.640Z,15.0
2022-10-03T20:17:08.851Z,15.0
2022-10-03T20:22:15.075Z,14.9
2022-10-03T20:27:21.281Z,14.9
2022-10-03T20:32:27.506Z,14.9
2022-10-03T20:37:36.596Z,14.8
2022-10-03T20:42:39.922Z,14.8
2022-10-03T20:47:46.132Z,14.8
2022-10-03T20:52:52.340Z,14.8
2022-10-03T20:57:57.577Z,14.8
2022-10-03T21:03:03.787Z,14.8
2022-10-03T21:08:09.998Z,14.7
2022-10-03T21:13:15.241Z,14.7
2022-10-03T21:18:21.450Z,14.7
2022-10-03T21:23:27.662Z,14.7
2022-10-03T21:28:33.951Z,14.7
2022-10-03T21:33:40.083Z,14.7
2022-10-03T21:38:46.323Z,14.6
2022-10-03T21:43:52.502Z,14.6
2022-10-03T21:48:58.708Z,14.6
2022-10-03T21:54:04.936Z,14.6
2022-10-03T21:59:11.140Z,14.6
2022-10-03T22:04:17.349Z,14.5
2022-10-03T22:09:23.561Z,14.5
2022-10-03T22:14:29.776Z,14.5
2022-10-03T22:19:35.972Z,14.5
2022-10-03T22:24:42.187Z,14.4
2022-10-03T22:29:48.391Z,14.4
2022-10-03T22:34:54.605Z,14.4
2022-10-03T22:40:00.810Z,14.3
2022-10-03T22:45:07.056Z,14.3
2022-10-03T22:50:13.241Z,14.2
2022-10-03T22:55:19.442Z,14.2
2022-10-03T23:00:24.681Z,14.1
2022-10-03T23:05:30.889Z,14.1
2022-10-03T23:10:36.122Z,14.0
2022-10-03T23:15:42.443Z,14.0
2022-10-03T23:20:48.537Z,13.9
2022-10-03T23:25:54.743Z,13.9
2022-10-03T23:31:00.989Z,13.9
2022-10-03T23:36:07.167Z,13.9
2022-10-03T23:41:13.379Z,13.9
2022-10-03T23:46:19.658Z,13.9
2022-10-03T23:51:25.782Z,13.9
2022-10-03T23:56:31.990Z,13.8
